sensor_id;sensor_type;location;lat;lon;timestamp;pressure;altitude;pressure_sealevel;temperature;humidity
19128;BME280;9696;53.686;10.094;2023-05-03T00:01:07;102598.19;;;3.85;100.00
19128;BME280;9696;53.686;10.094;2023-05-03T00:03:36;102600.69;;;3.88;100.00
19128;BME280;9696;53.686;10.094;2023-05-03T00:06:11;102601.44;;;3.91;100.00
19128;BME280;9696;53.686;10.094;2023-05-03T00:08:41;102600.78;;;3.85;100.00
19128;BME280;9696;53.686;10.094;2023-05-03T00:11:10;102606.09;;;3.80;100.00
19128;BME280;9696;53.686;10.094;2023-05-03T00:13:39;102603.34;;;3.86;100.00
19128;BME280;9696;53.686;10.094;2023-05-03T00:16:08;102604.56;;;3.73;100.00
19128;BME280;9696;53.686;10.094;2023-05-03T00:18:37;102607.06;;;3.76;100.00
19128;BME280;9696;53.686;10.094;2023-05-03T00:21:06;102604.69;;;3.68;100.00
19128;BME280;9696;53.686;10.094;2023-05-03T00:23:37;102610.63;;;3.73;100.00
19128;BME280;9696;53.686;10.094;2023-05-03T00:26:06;102613.63;;;3.58;100.00
19128;BME280;9696;53.686;10.094;2023-05-03T00:28:35;102609.41;;;3.54;100.00
19128;BME280;9696;53.686;10.094;2023-05-03T00:31:08;102604.34;;;3.50;100.00
19128;BME280;9696;53.686;10.094;2023-05-03T00:33:37;102608.69;;;3.49;100.00
19128;BME280;9696;53.686;10.094;2023-05-03T00:36:08;102609.41;;;3.54;100.00
19128;BME280;9696;53.686;10.094;2023-05-03T00:38:39;102611.97;;;3.56;100.00
19128;BME280;9696;53.686;10.094;2023-05-03T00:41:09;102608.31;;;3.63;100.00
19128;BME280;9696;53.686;10.094;2023-05-03T00:43:39;102611.78;;;3.63;100.00
19128;BME280;9696;53.686;10.094;2023-05-03T00:46:09;102612.81;;;3.56;100.00
19128;BME280;9696;53.686;10.094;2023-05-03T00:48:45;102611.19;;;3.52;100.00
19128;BME280;9696;53.686;10.094;2023-05-03T00:51:15;102610.91;;;3.63;100.00
19128;BME280;9696;53.686;10.094;2023-05-03T00:53:46;102612.88;;;3.55;100.00
19128;BME280;9696;53.686;10.094;2023-05-03T00:56:18;102608.25;;;3.66;100.00
19128;BME280;9696;53.686;10.094;2023-05-03T00:58:50;102609.50;;;3.51;100.00
19128;BME280;9696;53.686;10.094;2023-05-03T01:01:19;102605.09;;;3.55;100.00
19128;BME280;9696;53.686;10.094;2023-05-03T01:03:48;102608.66;;;3.51;100.00
19128;BME280;9696;53.686;10.094;2023-05-03T01:06:27;102617.41;;;3.47;100.00
19128;BME280;9696;53.686;10.094;2023-05-03T01:09:05;102609.50;;;3.51;100.00
19128;BME280;9696;53.686;10.094;2023-05-03T01:11:44;102611.31;;;3.48;100.00
19128;BME280;9696;53.686;10.094;2023-05-03T01:14:21;102616.47;;;3.49;100.00
19128;BME280;9696;53.686;10.094;2023-05-03T01:16:55;102614.13;;;3.40;100.00
19128;BME280;9696;53.686;10.094;2023-05-03T01:19:31;102614.25;;;3.36;100.00
19128;BME280;9696;53.686;10.094;2023-05-03T01:22:13;102618.50;;;3.38;100.00
19128;BME280;9696;53.686;10.094;2023-05-03T01:27:22;102630.66;;;3.36;100.00
19128;BME280;9696;53.686;10.094;2023-05-03T01:29:51;102632.25;;;3.40;100.00
19128;BME280;9696;53.686;10.094;2023-05-03T01:32:25;102632.31;;;3.39;100.00
19128;BME280;9696;53.686;10.094;2023-05-03T01:35:06;102629.97;;;3.29;100.00
19128;BME280;9696;53.686;10.094;2023-05-03T01:37:37;102636.75;;;3.35;100.00
19128;BME280;9696;53.686;10.094;2023-05-03T01:40:08;102630.50;;;3.42;100.00
19128;BME280;9696;53.686;10.094;2023-05-03T01:42:41;102633.94;;;3.43;100.00
19128;BME280;9696;53.686;10.094;2023-05-03T01:45:10;102629.47;;;3.48;100.00
19128;BME280;9696;53.686;10.094;2023-05-03T01:47:40;102635.66;;;3.44;100.00
19128;BME280;9696;53.686;10.094;2023-05-03T01:50:09;102632.13;;;3.46;100.00
19128;BME280;9696;53.686;10.094;2023-05-03T01:52:38;102632.97;;;3.47;100.00
19128;BME280;9696;53.686;10.094;2023-05-03T01:55:08;102638.88;;;3.52;100.00
19128;BME280;9696;53.686;10.094;2023-05-03T01:57:39;102640.56;;;3.54;100.00
19128;BME280;9696;53.686;10.094;2023-05-03T02:00:09;102639.50;;;3.61;100.00
19128;BME280;9696;53.686;10.094;2023-05-03T02:02:41;102642.09;;;3.61;100.00
19128;BME280;9696;53.686;10.094;2023-05-03T02:05:13;102639.94;;;3.75;100.00
19128;BME280;9696;53.686;10.094;2023-05-03T02:07:42;102639.06;;;3.76;100.00
19128;BME280;9696;53.686;10.094;2023-05-03T02:10:11;102641.78;;;3.72;100.00
19128;BME280;9696;53.686;10.094;2023-05-03T02:12:43;102641.41;;;3.87;100.00
19128;BME280;9696;53.686;10.094;2023-05-03T02:15:13;102633.88;;;3.76;100.00
19128;BME280;9696;53.686;10.094;2023-05-03T02:17:43;102638.94;;;3.81;100.00
19128;BME280;9696;53.686;10.094;2023-05-03T02:20:14;102651.31;;;3.71;100.00
19128;BME280;9696;53.686;10.094;2023-05-03T02:22:43;102648.13;;;3.62;100.00
19128;BME280;9696;53.686;10.094;2023-05-03T02:25:12;102656.03;;;3.57;100.00
19128;BME280;9696;53.686;10.094;2023-05-03T02:27:42;102652.75;;;3.51;100.00
19128;BME280;9696;53.686;10.094;2023-05-03T02:30:12;102651.91;;;3.50;100.00
19128;BME280;9696;53.686;10.094;2023-05-03T02:32:43;102657.94;;;3.51;100.00
19128;BME280;9696;53.686;10.094;2023-05-03T02:35:12;102654.41;;;3.53;100.00
19128;BME280;9696;53.686;10.094;2023-05-03T02:37:41;102665.56;;;3.57;100.00
19128;BME280;9696;53.686;10.094;2023-05-03T02:40:12;102668.97;;;3.59;100.00
19128;BME280;9696;53.686;10.094;2023-05-03T02:42:45;102660.03;;;3.69;100.00
19128;BME280;9696;53.686;10.094;2023-05-03T02:45:21;102666.06;;;3.71;100.00
19128;BME280;9696;53.686;10.094;2023-05-03T02:47:51;102673.50;;;3.83;100.00
19128;BME280;9696;53.686;10.094;2023-05-03T02:50:22;102659.41;;;3.92;100.00
19128;BME280;9696;53.686;10.094;2023-05-03T02:52:51;102660.25;;;3.92;100.00
19128;BME280;9696;53.686;10.094;2023-05-03T02:55:20;102662.63;;;4.00;100.00
19128;BME280;9696;53.686;10.094;2023-05-03T02:57:51;102665.22;;;4.00;100.00
19128;BME280;9696;53.686;10.094;2023-05-03T03:00:21;102667.56;;;4.10;100.00
19128;BME280;9696;53.686;10.094;2023-05-03T03:02:50;102651.88;;;4.13;100.00
19128;BME280;9696;53.686;10.094;2023-05-03T03:05:20;102655.38;;;4.12;100.00
19128;BME280;9696;53.686;10.094;2023-05-03T03:07:51;102658.94;;;4.08;100.00
19128;BME280;9696;53.686;10.094;2023-05-03T03:10:20;102651.97;;;4.10;100.00
19128;BME280;9696;53.686;10.094;2023-05-03T03:12:51;102660.91;;;4.00;100.00
19128;BME280;9696;53.686;10.094;2023-05-03T03:15:27;102664.13;;;4.08;100.00
19128;BME280;9696;53.686;10.094;2023-05-03T03:17:57;102661.00;;;3.97;100.00
19128;BME280;9696;53.686;10.094;2023-05-03T03:20:26;102666.78;;;4.07;100.00
19128;BME280;9696;53.686;10.094;2023-05-03T03:22:56;102662.34;;;4.10;100.00
19128;BME280;9696;53.686;10.094;2023-05-03T03:25:26;102655.03;;;3.94;100.00
19128;BME280;9696;53.686;10.094;2023-05-03T03:27:58;102655.03;;;3.94;100.00
19128;BME280;9696;53.686;10.094;2023-05-03T03:30:28;102659.91;;;4.04;100.00
19128;BME280;9696;53.686;10.094;2023-05-03T03:33:07;102668.59;;;4.03;100.00
19128;BME280;9696;53.686;10.094;2023-05-03T03:35:40;102664.72;;;4.18;100.00
19128;BME280;9696;53.686;10.094;2023-05-03T03:38:11;102660.47;;;4.15;100.00
19128;BME280;9696;53.686;10.094;2023-05-03T03:40:48;102666.34;;;4.22;100.00
19128;BME280;9696;53.686;10.094;2023-05-03T03:43:18;102663.03;;;4.17;100.00
19128;BME280;9696;53.686;10.094;2023-05-03T03:45:49;102662.78;;;4.26;100.00
19128;BME280;9696;53.686;10.094;2023-05-03T03:48:18;102664.59;;;4.22;100.00
19128;BME280;9696;53.686;10.094;2023-05-03T03:50:48;102653.53;;;4.16;100.00
19128;BME280;9696;53.686;10.094;2023-05-03T03:53:20;102665.94;;;4.36;100.00
19128;BME280;9696;53.686;10.094;2023-05-03T03:55:49;102656.38;;;4.36;100.00
19128;BME280;9696;53.686;10.094;2023-05-03T03:58:20;102659.66;;;4.43;100.00
19128;BME280;9696;53.686;10.094;2023-05-03T04:00:49;102661.31;;;4.45;100.00
19128;BME280;9696;53.686;10.094;2023-05-03T04:03:22;102649.97;;;4.48;100.00
19128;BME280;9696;53.686;10.094;2023-05-03T04:05:51;102656.75;;;4.53;100.00
19128;BME280;9696;53.686;10.094;2023-05-03T04:08:21;102655.25;;;4.46;100.00
19128;BME280;9696;53.686;10.094;2023-05-03T04:10:50;102654.81;;;4.60;100.00
19128;BME280;9696;53.686;10.094;2023-05-03T04:13:21;102659.81;;;4.66;100.00
19128;BME280;9696;53.686;10.094;2023-05-03T04:15:54;102656.03;;;4.76;100.00
19128;BME280;9696;53.686;10.094;2023-05-03T04:18:24;102657.66;;;4.79;100.00
19128;BME280;9696;53.686;10.094;2023-05-03T04:20:56;102660.19;;;4.82;100.00
19128;BME280;9696;53.686;10.094;2023-05-03T04:23:26;102661.84;;;4.84;100.00
19128;BME280;9696;53.686;10.094;2023-05-03T04:25:56;102657.84;;;4.74;100.00
19128;BME280;9696;53.686;10.094;2023-05-03T04:28:28;102663.97;;;4.71;100.00
19128;BME280;9696;53.686;10.094;2023-05-03T04:30:57;102655.69;;;4.87;100.00
19128;BME280;9696;53.686;10.094;2023-05-03T04:33:28;102656.28;;;4.95;100.00
19128;BME280;9696;53.686;10.094;2023-05-03T04:36:02;102665.97;;;5.17;100.00
19128;BME280;9696;53.686;10.094;2023-05-03T04:38:33;102668.56;;;5.17;100.00
19128;BME280;9696;53.686;10.094;2023-05-03T04:41:03;102665.38;;;5.34;100.00
19128;BME280;9696;53.686;10.094;2023-05-03T04:43:34;102678.34;;;5.36;100.00
19128;BME280;9696;53.686;10.094;2023-05-03T04:46:04;102671.91;;;5.21;100.00
19128;BME280;9696;53.686;10.094;2023-05-03T04:48:33;102683.66;;;5.33;100.00
19128;BME280;9696;53.686;10.094;2023-05-03T04:51:03;102677.88;;;5.49;100.00
19128;BME280;9696;53.686;10.094;2023-05-03T04:53:32;102680.91;;;5.62;100.00
19128;BME280;9696;53.686;10.094;2023-05-03T04:56:07;102683.78;;;5.79;100.00
19128;BME280;9696;53.686;10.094;2023-05-03T04:58:41;102685.09;;;5.92;100.00
19128;BME280;9696;53.686;10.094;2023-05-03T05:01:13;102680.09;;;5.85;100.00
19128;BME280;9696;53.686;10.094;2023-05-03T05:03:43;102686.34;;;5.81;100.00
19128;BME280;9696;53.686;10.094;2023-05-03T05:06:19;102692.28;;;6.09;100.00
19128;BME280;9696;53.686;10.094;2023-05-03T05:08:49;102690.81;;;6.25;100.00
19128;BME280;9696;53.686;10.094;2023-05-03T05:11:18;102689.75;;;6.31;100.00
19128;BME280;9696;53.686;10.094;2023-05-03T05:13:50;102693.25;;;6.30;100.00
19128;BME280;9696;53.686;10.094;2023-05-03T05:16:20;102688.03;;;6.30;100.00
19128;BME280;9696;53.686;10.094;2023-05-03T05:18:53;102692.75;;;6.43;100.00
19128;BME280;9696;53.686;10.094;2023-05-03T05:21:25;102702.66;;;6.57;100.00
19128;BME280;9696;53.686;10.094;2023-05-03T05:23:56;102698.75;;;6.45;100.00
19128;BME280;9696;53.686;10.094;2023-05-03T05:26:25;102692.09;;;6.60;100.00
19128;BME280;9696;53.686;10.094;2023-05-03T05:28:56;102695.97;;;6.72;100.00
19128;BME280;9696;53.686;10.094;2023-05-03T05:31:26;102700.88;;;7.02;100.00
19128;BME280;9696;53.686;10.094;2023-05-03T05:33:55;102690.91;;;7.74;100.00
19128;BME280;9696;53.686;10.094;2023-05-03T05:36:24;102688.63;;;8.05;100.00
19128;BME280;9696;53.686;10.094;2023-05-03T05:38:54;102681.84;;;8.20;100.00
19128;BME280;9696;53.686;10.094;2023-05-03T05:41:24;102681.97;;;8.37;100.00
19128;BME280;9696;53.686;10.094;2023-05-03T05:43:53;102698.50;;;7.79;100.00
19128;BME280;9696;53.686;10.094;2023-05-03T05:46:24;102695.81;;;8.77;100.00
19128;BME280;9696;53.686;10.094;2023-05-03T05:48:54;102696.78;;;8.74;100.00
19128;BME280;9696;53.686;10.094;2023-05-03T05:51:24;102693.44;;;8.89;100.00
19128;BME280;9696;53.686;10.094;2023-05-03T05:53:55;102686.91;;;9.51;100.00
19128;BME280;9696;53.686;10.094;2023-05-03T05:56:24;102695.88;;;9.11;100.00
19128;BME280;9696;53.686;10.094;2023-05-03T05:58:54;102692.63;;;9.06;100.00
19128;BME280;9696;53.686;10.094;2023-05-03T06:01:26;102688.97;;;9.27;100.00
19128;BME280;9696;53.686;10.094;2023-05-03T06:03:55;102692.53;;;9.43;100.00
19128;BME280;9696;53.686;10.094;2023-05-03T06:06:25;102693.16;;;9.99;100.00
19128;BME280;9696;53.686;10.094;2023-05-03T06:08:54;102689.66;;;10.15;100.00
19128;BME280;9696;53.686;10.094;2023-05-03T06:11:23;102690.16;;;9.89;100.00
19128;BME280;9696;53.686;10.094;2023-05-03T06:13:53;102684.53;;;10.45;100.00
19128;BME280;9696;53.686;10.094;2023-05-03T06:16:24;102689.41;;;10.20;100.00
19128;BME280;9696;53.686;10.094;2023-05-03T06:18:54;102690.94;;;10.24;100.00
19128;BME280;9696;53.686;10.094;2023-05-03T06:21:23;102694.59;;;9.71;100.00
19128;BME280;9696;53.686;10.094;2023-05-03T06:23:53;102692.22;;;10.00;100.00
19128;BME280;9696;53.686;10.094;2023-05-03T06:26:22;102699.00;;;10.83;100.00
19128;BME280;9696;53.686;10.094;2023-05-03T06:28:51;102701.09;;;11.08;100.00
19128;BME280;9696;53.686;10.094;2023-05-03T06:31:20;102698.50;;;10.13;100.00
19128;BME280;9696;53.686;10.094;2023-05-03T06:33:51;102697.25;;;10.68;100.00
19128;BME280;9696;53.686;10.094;2023-05-03T06:36:21;102710.72;;;10.94;100.00
19128;BME280;9696;53.686;10.094;2023-05-03T06:38:50;102699.16;;;11.71;100.00
19128;BME280;9696;53.686;10.094;2023-05-03T06:41:19;102701.81;;;10.49;100.00
19128;BME280;9696;53.686;10.094;2023-05-03T06:43:48;102695.63;;;10.34;100.00
19128;BME280;9696;53.686;10.094;2023-05-03T06:46:17;102696.50;;;10.66;100.00
19128;BME280;9696;53.686;10.094;2023-05-03T06:48:58;102703.59;;;10.49;100.00
19128;BME280;9696;53.686;10.094;2023-05-03T06:51:27;102701.56;;;10.85;100.00
19128;BME280;9696;53.686;10.094;2023-05-03T06:53:59;102693.44;;;11.93;100.00
19128;BME280;9696;53.686;10.094;2023-05-03T06:56:33;102692.78;;;11.16;100.00
19128;BME280;9696;53.686;10.094;2023-05-03T06:59:03;102697.06;;;10.87;100.00
19128;BME280;9696;53.686;10.094;2023-05-03T07:01:32;102717.28;;;10.38;100.00
19128;BME280;9696;53.686;10.094;2023-05-03T07:04:03;102709.75;;;9.82;100.00
19128;BME280;9696;53.686;10.094;2023-05-03T07:06:32;102704.66;;;10.29;100.00
19128;BME280;9696;53.686;10.094;2023-05-03T07:09:21;102707.41;;;11.35;100.00
19128;BME280;9696;53.686;10.094;2023-05-03T07:12:08;102708.50;;;9.72;100.00
19128;BME280;9696;53.686;10.094;2023-05-03T07:14:39;102714.34;;;9.44;100.00
19128;BME280;9696;53.686;10.094;2023-05-03T07:17:08;102711.22;;;9.53;100.00
19128;BME280;9696;53.686;10.094;2023-05-03T07:19:39;102719.69;;;10.90;100.00
19128;BME280;9696;53.686;10.094;2023-05-03T07:22:08;102722.03;;;10.14;100.00
19128;BME280;9696;53.686;10.094;2023-05-03T07:24:37;102721.00;;;10.34;100.00
19128;BME280;9696;53.686;10.094;2023-05-03T07:27:06;102721.44;;;10.42;100.00
19128;BME280;9696;53.686;10.094;2023-05-03T07:29:36;102722.06;;;9.80;100.00
19128;BME280;9696;53.686;10.094;2023-05-03T07:32:05;102717.03;;;11.21;100.00
19128;BME280;9696;53.686;10.094;2023-05-03T07:34:34;102709.09;;;12.65;100.00
19128;BME280;9696;53.686;10.094;2023-05-03T07:37:05;102714.88;;;12.44;100.00
19128;BME280;9696;53.686;10.094;2023-05-03T07:39:34;102704.19;;;12.04;100.00
19128;BME280;9696;53.686;10.094;2023-05-03T07:42:03;102708.09;;;10.78;100.00
19128;BME280;9696;53.686;10.094;2023-05-03T07:44:33;102712.25;;;10.18;100.00
19128;BME280;9696;53.686;10.094;2023-05-03T07:47:02;102709.53;;;10.19;100.00
19128;BME280;9696;53.686;10.094;2023-05-03T07:49:31;102710.09;;;10.42;100.00
19128;BME280;9696;53.686;10.094;2023-05-03T07:52:04;102712.34;;;10.16;100.00
19128;BME280;9696;53.686;10.094;2023-05-03T07:54:33;102711.16;;;10.05;100.00
19128;BME280;9696;53.686;10.094;2023-05-03T07:57:03;102709.81;;;10.15;100.00
19128;BME280;9696;53.686;10.094;2023-05-03T07:59:33;102712.91;;;9.88;100.00
19128;BME280;9696;53.686;10.094;2023-05-03T08:02:02;102718.19;;;10.04;100.00
19128;BME280;9696;53.686;10.094;2023-05-03T08:04:32;102711.22;;;9.87;100.00
19128;BME280;9696;53.686;10.094;2023-05-03T08:07:01;102718.16;;;9.54;100.00
19128;BME280;9696;53.686;10.094;2023-05-03T08:09:32;102717.72;;;9.63;100.00
19128;BME280;9696;53.686;10.094;2023-05-03T08:12:01;102723.47;;;9.70;100.00
19128;BME280;9696;53.686;10.094;2023-05-03T08:14:30;102724.25;;;9.72;100.00
19128;BME280;9696;53.686;10.094;2023-05-03T08:17:00;102726.03;;;10.54;100.00
19128;BME280;9696;53.686;10.094;2023-05-03T08:19:31;102718.69;;;11.81;100.00
19128;BME280;9696;53.686;10.094;2023-05-03T08:22:00;102711.78;;;12.09;100.00
19128;BME280;9696;53.686;10.094;2023-05-03T08:24:31;102711.75;;;12.37;100.00
19128;BME280;9696;53.686;10.094;2023-05-03T08:27:00;102719.28;;;10.81;100.00
19128;BME280;9696;53.686;10.094;2023-05-03T08:29:29;102715.00;;;10.63;100.00
19128;BME280;9696;53.686;10.094;2023-05-03T08:31:59;102718.34;;;10.98;100.00
19128;BME280;9696;53.686;10.094;2023-05-03T08:34:29;102724.50;;;10.34;100.00
19128;BME280;9696;53.686;10.094;2023-05-03T08:36:58;102718.63;;;10.29;100.00
19128;BME280;9696;53.686;10.094;2023-05-03T08:39:28;102733.53;;;10.45;100.00
19128;BME280;9696;53.686;10.094;2023-05-03T08:41:59;102724.91;;;10.27;100.00
19128;BME280;9696;53.686;10.094;2023-05-03T08:44:29;102727.63;;;10.57;100.00
19128;BME280;9696;53.686;10.094;2023-05-03T08:46:59;102724.91;;;11.21;100.00
19128;BME280;9696;53.686;10.094;2023-05-03T08:49:29;102726.34;;;10.32;100.00
19128;BME280;9696;53.686;10.094;2023-05-03T08:51:59;102727.38;;;10.46;100.00
19128;BME280;9696;53.686;10.094;2023-05-03T08:54:30;102723.97;;;10.44;100.00
19128;BME280;9696;53.686;10.094;2023-05-03T08:57:01;102726.53;;;12.40;100.00
19128;BME280;9696;53.686;10.094;2023-05-03T08:59:30;102724.88;;;12.80;100.00
19128;BME280;9696;53.686;10.094;2023-05-03T09:01:59;102727.19;;;12.84;100.00
19128;BME280;9696;53.686;10.094;2023-05-03T09:04:32;102726.38;;;13.37;99.43
19128;BME280;9696;53.686;10.094;2023-05-03T09:07:07;102724.63;;;11.55;100.00
19128;BME280;9696;53.686;10.094;2023-05-03T09:09:36;102736.59;;;11.61;100.00
19128;BME280;9696;53.686;10.094;2023-05-03T09:12:07;102734.16;;;10.65;100.00
19128;BME280;9696;53.686;10.094;2023-05-03T09:14:43;102748.78;;;11.32;100.00
19128;BME280;9696;53.686;10.094;2023-05-03T09:17:17;102741.25;;;10.95;100.00
19128;BME280;9696;53.686;10.094;2023-05-03T09:19:49;102739.84;;;10.73;100.00
19128;BME280;9696;53.686;10.094;2023-05-03T09:22:21;102740.28;;;10.81;100.00
19128;BME280;9696;53.686;10.094;2023-05-03T09:24:54;102738.50;;;11.43;100.00
19128;BME280;9696;53.686;10.094;2023-05-03T09:27:25;102737.84;;;12.83;98.17
19128;BME280;9696;53.686;10.094;2023-05-03T09:29:55;102737.72;;;12.15;100.00
19128;BME280;9696;53.686;10.094;2023-05-03T09:32:24;102739.59;;;11.39;100.00
19128;BME280;9696;53.686;10.094;2023-05-03T09:35:08;102746.00;;;11.19;100.00
19128;BME280;9696;53.686;10.094;2023-05-03T09:37:38;102750.56;;;11.31;100.00
19128;BME280;9696;53.686;10.094;2023-05-03T09:40:07;102747.53;;;11.08;100.00
19128;BME280;9696;53.686;10.094;2023-05-03T09:42:39;102744.31;;;11.03;100.00
19128;BME280;9696;53.686;10.094;2023-05-03T09:45:23;102738.50;;;10.98;100.00
19128;BME280;9696;53.686;10.094;2023-05-03T09:47:52;102736.16;;;11.23;100.00
19128;BME280;9696;53.686;10.094;2023-05-03T09:50:23;102735.78;;;11.45;100.00
19128;BME280;9696;53.686;10.094;2023-05-03T09:52:53;102736.13;;;10.93;100.00
19128;BME280;9696;53.686;10.094;2023-05-03T09:55:25;102732.56;;;11.40;100.00
19128;BME280;9696;53.686;10.094;2023-05-03T09:57:56;102736.28;;;11.81;100.00
19128;BME280;9696;53.686;10.094;2023-05-03T10:00:25;102724.28;;;11.31;100.00
19128;BME280;9696;53.686;10.094;2023-05-03T10:02:56;102736.28;;;11.81;100.00
19128;BME280;9696;53.686;10.094;2023-05-03T10:05:30;102731.09;;;11.79;100.00
19128;BME280;9696;53.686;10.094;2023-05-03T10:08:00;102734.31;;;12.13;100.00
19128;BME280;9696;53.686;10.094;2023-05-03T10:10:33;102732.28;;;10.99;100.00
19128;BME280;9696;53.686;10.094;2023-05-03T10:13:04;102739.41;;;11.42;100.00
19128;BME280;9696;53.686;10.094;2023-05-03T10:15:34;102736.72;;;11.44;100.00
19128;BME280;9696;53.686;10.094;2023-05-03T10:18:07;102727.59;;;11.65;100.00
19128;BME280;9696;53.686;10.094;2023-05-03T10:20:40;102725.19;;;11.76;100.00
19128;BME280;9696;53.686;10.094;2023-05-03T10:23:12;102730.75;;;11.56;100.00
19128;BME280;9696;53.686;10.094;2023-05-03T10:28:42;102718.63;;;11.83;100.00
19128;BME280;9696;53.686;10.094;2023-05-03T10:31:42;102718.44;;;11.86;100.00
19128;BME280;9696;53.686;10.094;2023-05-03T10:34:20;102720.25;;;11.70;100.00
19128;BME280;9696;53.686;10.094;2023-05-03T10:36:51;102719.38;;;11.55;100.00
19128;BME280;9696;53.686;10.094;2023-05-03T10:39:21;102712.22;;;12.58;100.00
19128;BME280;9696;53.686;10.094;2023-05-03T10:41:58;102714.22;;;12.26;98.20
19128;BME280;9696;53.686;10.094;2023-05-03T10:44:38;102708.03;;;13.09;100.00
19128;BME280;9696;53.686;10.094;2023-05-03T10:47:12;102697.28;;;13.51;93.19
19128;BME280;9696;53.686;10.094;2023-05-03T10:49:42;102705.28;;;13.37;92.06
19128;BME280;9696;53.686;10.094;2023-05-03T10:52:46;102706.31;;;12.95;88.71
19128;BME280;9696;53.686;10.094;2023-05-03T10:55:17;102698.53;;;13.33;95.40
19128;BME280;9696;53.686;10.094;2023-05-03T10:57:48;102694.22;;;13.45;89.33
19128;BME280;9696;53.686;10.094;2023-05-03T11:00:23;102686.38;;;13.70;90.31
19128;BME280;9696;53.686;10.094;2023-05-03T11:03:08;102702.38;;;13.67;90.40
19128;BME280;9696;53.686;10.094;2023-05-03T11:05:38;102692.41;;;12.38;92.84
19128;BME280;9696;53.686;10.094;2023-05-03T11:08:08;102698.56;;;12.24;97.97
19128;BME280;9696;53.686;10.094;2023-05-03T11:10:37;102700.28;;;12.93;93.19
19128;BME280;9696;53.686;10.094;2023-05-03T11:13:07;102693.22;;;12.94;94.25
19128;BME280;9696;53.686;10.094;2023-05-03T11:15:38;102696.13;;;13.03;94.56
19128;BME280;9696;53.686;10.094;2023-05-03T11:18:08;102709.72;;;12.83;93.15
19128;BME280;9696;53.686;10.094;2023-05-03T11:20:38;102705.59;;;13.06;95.35
19128;BME280;9696;53.686;10.094;2023-05-03T11:23:07;102699.75;;;13.54;92.83
19128;BME280;9696;53.686;10.094;2023-05-03T11:25:36;102700.47;;;14.07;93.09
19128;BME280;9696;53.686;10.094;2023-05-03T11:28:06;102699.97;;;13.77;91.60
19128;BME280;9696;53.686;10.094;2023-05-03T11:30:37;102699.53;;;14.70;84.65
19128;BME280;9696;53.686;10.094;2023-05-03T11:33:06;102701.16;;;14.59;82.82
19128;BME280;9696;53.686;10.094;2023-05-03T11:35:35;102691.78;;;14.55;85.47
19128;BME280;9696;53.686;10.094;2023-05-03T11:38:05;102695.31;;;14.18;84.92
19128;BME280;9696;53.686;10.094;2023-05-03T11:40:34;102685.47;;;14.33;90.25
19128;BME280;9696;53.686;10.094;2023-05-03T11:43:06;102692.00;;;14.27;92.23
19128;BME280;9696;53.686;10.094;2023-05-03T11:45:39;102692.59;;;15.16;89.92
19128;BME280;9696;53.686;10.094;2023-05-03T11:48:12;102690.09;;;15.02;80.02
19128;BME280;9696;53.686;10.094;2023-05-03T11:50:46;102692.22;;;14.49;80.53
19128;BME280;9696;53.686;10.094;2023-05-03T11:53:18;102689.50;;;14.26;83.11
19128;BME280;9696;53.686;10.094;2023-05-03T11:55:51;102692.72;;;15.49;78.17
19128;BME280;9696;53.686;10.094;2023-05-03T11:58:22;102685.56;;;16.29;65.98
19128;BME280;9696;53.686;10.094;2023-05-03T12:00:54;102685.44;;;15.64;66.42
19128;BME280;9696;53.686;10.094;2023-05-03T12:03:25;102689.78;;;14.46;75.41
19128;BME280;9696;53.686;10.094;2023-05-03T12:05:59;102691.31;;;13.75;80.19
19128;BME280;9696;53.686;10.094;2023-05-03T12:08:32;102674.84;;;16.20;70.16
19128;BME280;9696;53.686;10.094;2023-05-03T12:11:05;102682.59;;;14.85;72.17
19128;BME280;9696;53.686;10.094;2023-05-03T12:13:38;102675.59;;;14.84;81.37
19128;BME280;9696;53.686;10.094;2023-05-03T12:16:10;102658.66;;;14.62;73.98
19128;BME280;9696;53.686;10.094;2023-05-03T12:18:51;102672.91;;;15.77;73.36
19128;BME280;9696;53.686;10.094;2023-05-03T12:21:24;102671.09;;;15.55;73.38
19128;BME280;9696;53.686;10.094;2023-05-03T12:23:59;102669.09;;;15.00;75.98
19128;BME280;9696;53.686;10.094;2023-05-03T12:26:29;102666.78;;;16.21;68.49
19128;BME280;9696;53.686;10.094;2023-05-03T12:29:00;102662.22;;;16.01;77.15
19128;BME280;9696;53.686;10.094;2023-05-03T12:31:31;102652.44;;;16.24;71.48
19128;BME280;9696;53.686;10.094;2023-05-03T12:34:01;102661.25;;;14.99;83.18
19128;BME280;9696;53.686;10.094;2023-05-03T12:36:51;102659.22;;;15.83;76.49
19128;BME280;9696;53.686;10.094;2023-05-03T12:39:21;102652.19;;;16.49;64.66
19128;BME280;9696;53.686;10.094;2023-05-03T12:41:54;102657.13;;;15.53;74.15
19128;BME280;9696;53.686;10.094;2023-05-03T12:44:36;102648.38;;;15.64;80.27
19128;BME280;9696;53.686;10.094;2023-05-03T12:47:11;102655.72;;;16.27;77.17
19128;BME280;9696;53.686;10.094;2023-05-03T12:49:53;102641.31;;;16.52;64.76
19128;BME280;9696;53.686;10.094;2023-05-03T12:52:26;102653.31;;;15.34;74.26
19128;BME280;9696;53.686;10.094;2023-05-03T12:54:59;102657.41;;;14.68;80.97
19128;BME280;9696;53.686;10.094;2023-05-03T12:57:31;102648.53;;;14.69;80.61
19128;BME280;9696;53.686;10.094;2023-05-03T13:00:05;102648.53;;;14.20;78.23
19128;BME280;9696;53.686;10.094;2023-05-03T13:02:43;102639.38;;;15.21;77.22
19128;BME280;9696;53.686;10.094;2023-05-03T13:05:15;102639.84;;;15.72;78.75
19128;BME280;9696;53.686;10.094;2023-05-03T13:08:01;102631.06;;;15.60;79.40
19128;BME280;9696;53.686;10.094;2023-05-03T13:10:37;102631.72;;;16.51;75.85
19128;BME280;9696;53.686;10.094;2023-05-03T13:13:08;102636.53;;;15.46;74.24
19128;BME280;9696;53.686;10.094;2023-05-03T13:15:38;102636.88;;;14.48;79.31